createdAt,value
2023-05-25T00:00:11.250Z,98704.16
2023-05-25T00:02:39.595Z,98698.84
2023-05-25T00:05:09.503Z,98678.94
2023-05-25T00:07:36.086Z,98700.22
2023-05-25T00:10:04.704Z,98702.69
2023-05-25T00:12:31.531Z,98692.28
2023-05-25T00:14:58.174Z,98691.81
2023-05-25T00:17:25.067Z,98692.84
2023-05-25T00:19:51.698Z,98701.47
2023-05-25T00:22:18.233Z,98694.69
2023-05-25T00:24:44.699Z,98701.22
2023-05-25T00:27:11.246Z,98696.13
2023-05-25T00:29:37.695Z,98694.81
2023-05-25T00:32:04.833Z,98689.50
2023-05-25T00:34:31.289Z,98694.38
2023-05-25T00:36:57.905Z,98691.44
2023-05-25T00:39:24.387Z,98693.78
2023-05-25T00:41:50.973Z,98692.53
2023-05-25T00:44:22.173Z,98673.84
2023-05-25T00:46:50.975Z,98672.91
2023-05-25T00:49:19.525Z,98689.75
2023-05-25T00:51:47.693Z,98632.78
2023-05-25T00:54:16.154Z,98700.78
2023-05-25T00:56:58.080Z,98705.25
2023-05-25T00:59:35.496Z,98699.28
2023-05-25T01:02:07.751Z,98702.50
2023-05-25T01:04:38.140Z,98691.41
2023-05-25T01:07:09.978Z,98697.38
2023-05-25T01:09:41.056Z,98699.19
2023-05-25T01:12:09.278Z,98701.00
2023-05-25T01:14:38.736Z,98702.94
2023-05-25T01:17:06.528Z,98643.00
2023-05-25T01:19:33.839Z,98688.03
2023-05-25T01:22:07.254Z,98695.66
2023-05-25T01:24:53.982Z,98695.41
2023-05-25T01:27:32.414Z,98695.91
2023-05-25T01:29:59.809Z,98654.72
2023-05-25T01:32:27.108Z,98691.34
2023-05-25T01:34:56.055Z,98689.22
2023-05-25T01:37:24.635Z,98699.19
2023-05-25T01:39:51.112Z,98704.50
2023-05-25T01:42:17.743Z,98706.91
2023-05-25T01:44:44.804Z,98712.44
2023-05-25T01:47:26.586Z,98709.50
2023-05-25T01:50:00.161Z,98704.25
2023-05-25T01:52:30.538Z,98710.56
2023-05-25T01:55:05.501Z,98718.31
2023-05-25T01:57:37.356Z,98715.38
2023-05-25T02:00:04.952Z,98708.66
2023-05-25T02:02:42.862Z,98705.75
2023-05-25T02:05:11.110Z,98711.16
2023-05-25T02:07:38.296Z,98714.34
2023-05-25T02:10:05.430Z,98713.22
2023-05-25T02:12:32.112Z,98715.00
2023-05-25T02:14:58.710Z,98716.06
2023-05-25T02:17:27.947Z,98706.00
2023-05-25T02:19:54.659Z,98707.41
2023-05-25T02:22:22.264Z,98718.91
2023-05-25T02:24:48.847Z,98718.69
2023-05-25T02:27:15.519Z,98710.38
2023-05-25T02:29:42.212Z,98706.78
2023-05-25T02:32:09.841Z,98702.47
2023-05-25T02:34:36.314Z,98699.94
2023-05-25T02:37:02.825Z,98698.00
2023-05-25T02:39:29.274Z,98686.94
2023-05-25T02:41:58.275Z,98687.72
2023-05-25T02:44:25.632Z,98675.69
2023-05-25T02:46:52.307Z,98687.31
2023-05-25T02:49:18.964Z,98689.28
2023-05-25T02:51:45.618Z,98709.03
2023-05-25T02:54:12.151Z,98695.53
2023-05-25T02:56:39.608Z,98698.84
2023-05-25T02:59:07.653Z,98702.16
2023-05-25T03:01:35.508Z,98710.00
2023-05-25T03:04:02.299Z,98709.78
2023-05-25T03:06:33.537Z,98708.28
2023-05-25T03:09:09.601Z,98707.84
2023-05-25T03:11:37.788Z,98717.69
2023-05-25T03:14:04.629Z,98723.84
2023-05-25T03:16:36.665Z,98723.03
2023-05-25T03:19:05.402Z,98712.44
2023-05-25T03:21:33.935Z,98709.16
2023-05-25T03:24:00.477Z,98718.28
2023-05-25T03:26:27.046Z,98717.31
2023-05-25T03:28:54.009Z,98713.56
2023-05-25T03:31:23.556Z,98719.94
2023-05-25T03:33:50.134Z,98722.13
2023-05-25T03:36:18.344Z,98721.63
2023-05-25T03:38:45.205Z,98720.38
2023-05-25T03:41:11.729Z,98717.31
2023-05-25T03:43:38.526Z,98718.28
2023-05-25T03:46:06.908Z,98746.78
2023-05-25T03:48:33.440Z,98723.13
2023-05-25T03:50:59.946Z,98720.78
2023-05-25T03:53:26.971Z,98703.75
2023-05-25T03:55:53.521Z,98734.69
2023-05-25T03:58:20.096Z,98723.13
2023-05-25T04:00:49.114Z,98741.13
2023-05-25T04:03:16.096Z,98739.91
2023-05-25T04:05:43.597Z,98724.19
2023-05-25T04:08:10.744Z,98743.97
2023-05-25T04:10:37.440Z,98747.69
2023-05-25T04:13:03.911Z,98749.16
2023-05-25T04:15:30.743Z,98752.69
2023-05-25T04:18:08.796Z,98753.50
2023-05-25T04:20:36.625Z,98758.13
2023-05-25T04:23:07.611Z,98769.22
2023-05-25T04:25:34.975Z,98776.38
2023-05-25T04:28:01.470Z,98772.28
2023-05-25T04:30:45.794Z,98771.63
2023-05-25T04:33:29.409Z,98778.47
2023-05-25T04:36:03.885Z,98766.06
2023-05-25T04:38:30.811Z,98765.94
2023-05-25T04:41:01.953Z,98763.31
2023-05-25T04:43:29.915Z,98778.69
2023-05-25T04:45:59.652Z,98776.25
2023-05-25T04:48:28.519Z,98777.31
2023-05-25T04:50:58.119Z,98782.34
2023-05-25T04:53:24.784Z,98783.97
2023-05-25T04:55:51.767Z,98788.84
2023-05-25T04:58:18.421Z,98790.13
2023-05-25T05:00:45.504Z,98789.34
2023-05-25T05:03:13.466Z,98687.09
2023-05-25T05:05:40.224Z,98796.38
2023-05-25T05:08:10.582Z,98791.88
2023-05-25T05:10:37.355Z,98800.59
2023-05-25T05:13:03.831Z,98784.16
2023-05-25T05:15:30.904Z,98803.50
2023-05-25T05:17:59.385Z,98798.44
2023-05-25T05:20:25.983Z,98797.81
2023-05-25T05:22:53.393Z,98792.06
2023-05-25T05:25:20.063Z,98784.88
2023-05-25T05:27:47.025Z,98771.34
2023-05-25T05:30:22.239Z,98814.31
2023-05-25T05:32:48.782Z,98813.00
2023-05-25T05:35:16.304Z,98815.84
2023-05-25T05:37:46.988Z,98810.31
2023-05-25T05:40:13.760Z,98811.44
2023-05-25T05:42:42.399Z,98806.59
2023-05-25T05:45:10.230Z,98809.72
2023-05-25T05:47:37.278Z,98808.84
2023-05-25T05:50:04.256Z,98813.06
2023-05-25T05:52:30.895Z,98806.22
2023-05-25T05:54:57.450Z,98810.22
2023-05-25T05:57:23.991Z,98804.59
2023-05-25T05:59:50.692Z,98817.75
2023-05-25T06:02:18.229Z,98813.72
2023-05-25T06:04:45.112Z,98811.81
2023-05-25T06:07:12.054Z,98821.25
2023-05-25T06:09:38.660Z,98822.16
2023-05-25T06:12:06.177Z,98816.03
2023-05-25T06:14:33.623Z,98818.34
2023-05-25T06:17:02.826Z,98811.44
2023-05-25T06:19:29.594Z,98816.56
2023-05-25T06:21:56.859Z,98815.56
2023-05-25T06:24:23.304Z,98814.50
2023-05-25T06:26:49.890Z,98816.63
2023-05-25T06:29:17.390Z,98816.47
2023-05-25T06:31:44.375Z,98817.88
2023-05-25T06:34:10.837Z,98828.81
2023-05-25T06:36:38.020Z,98819.91
2023-05-25T06:39:04.516Z,98825.28
2023-05-25T06:41:30.994Z,98821.31
2023-05-25T06:43:57.798Z,98825.13
2023-05-25T06:46:33.003Z,98823.75
2023-05-25T06:49:00.893Z,98771.44
2023-05-25T06:51:27.802Z,98766.97
2023-05-25T06:53:57.345Z,98823.56
2023-05-25T06:56:24.473Z,98820.19
2023-05-25T06:58:51.134Z,98813.03
2023-05-25T07:01:17.829Z,98819.72
2023-05-25T07:03:44.288Z,98822.31
2023-05-25T07:06:12.179Z,98831.75
2023-05-25T07:08:38.871Z,98821.00
2023-05-25T07:11:05.486Z,98821.75
2023-05-25T07:13:31.934Z,98822.13
2023-05-25T07:15:58.400Z,98813.59
2023-05-25T07:18:26.214Z,98821.84
2023-05-25T07:20:53.444Z,98833.53
2023-05-25T07:23:20.040Z,98817.91
2023-05-25T07:25:46.965Z,98822.84
2023-05-25T07:28:13.596Z,98833.66
2023-05-25T07:30:40.827Z,98829.44
2023-05-25T07:33:07.332Z,98821.56
2023-05-25T07:35:35.473Z,98823.94
2023-05-25T07:38:06.719Z,98837.75
2023-05-25T07:40:33.308Z,98841.97
2023-05-25T07:42:59.768Z,98833.13
2023-05-25T07:45:26.412Z,98817.69
2023-05-25T07:47:52.941Z,98824.91
2023-05-25T07:50:19.730Z,98815.09
2023-05-25T07:52:46.435Z,98826.31
2023-05-25T07:55:13.090Z,98836.22
2023-05-25T07:57:39.584Z,98820.50
2023-05-25T08:00:08.281Z,98822.50
2023-05-25T08:02:41.078Z,98841.47
2023-05-25T08:05:08.270Z,98823.53
2023-05-25T08:07:34.800Z,98810.56
2023-05-25T08:10:01.973Z,98829.50
2023-05-25T08:12:46.197Z,98827.84
2023-05-25T08:15:15.122Z,98834.03
2023-05-25T08:17:41.822Z,98840.06
2023-05-25T08:20:09.365Z,98830.31
2023-05-25T08:22:36.033Z,98838.00
2023-05-25T08:25:04.250Z,98800.75
2023-05-25T08:27:31.782Z,98828.97
2023-05-25T08:30:00.573Z,98800.25
2023-05-25T08:32:27.155Z,98837.06
2023-05-25T08:34:53.626Z,98831.00
2023-05-25T08:37:22.528Z,98827.28
2023-05-25T08:39:49.209Z,98832.19
2023-05-25T08:42:15.811Z,98702.09
2023-05-25T08:44:42.731Z,98845.22
2023-05-25T08:47:12.164Z,98849.25
2023-05-25T08:49:39.511Z,98810.81
2023-05-25T08:52:10.571Z,98845.88
2023-05-25T08:54:38.085Z,98852.22
2023-05-25T08:57:16.798Z,98849.81
2023-05-25T08:59:50.422Z,98843.75
2023-05-25T09:02:22.972Z,98853.88
2023-05-25T09:04:49.564Z,98845.78
2023-05-25T09:07:16.508Z,98844.50
2023-05-25T09:09:43.811Z,98848.00
2023-05-25T09:12:10.909Z,98841.25
2023-05-25T09:14:38.011Z,98839.59
2023-05-25T09:17:04.766Z,98811.75
2023-05-25T09:19:31.313Z,98836.91
2023-05-25T09:22:13.338Z,98840.38
2023-05-25T09:24:44.088Z,98855.66
2023-05-25T09:27:12.062Z,98843.13
2023-05-25T09:29:38.668Z,98794.75
2023-05-25T09:32:06.758Z,98846.16
2023-05-25T09:34:35.995Z,98839.78
2023-05-25T09:37:17.324Z,98854.28
2023-05-25T09:39:44.543Z,98850.59
2023-05-25T09:42:11.971Z,98843.47
2023-05-25T09:44:39.621Z,98855.13
2023-05-25T09:47:06.473Z,98851.53
2023-05-25T09:49:33.095Z,98851.13
2023-05-25T09:52:00.652Z,98824.69
2023-05-25T09:54:27.488Z,98854.41
2023-05-25T09:56:54.448Z,98847.75
2023-05-25T09:59:23.376Z,98838.25
2023-05-25T10:01:53.707Z,98847.03
2023-05-25T10:04:21.065Z,98849.75
2023-05-25T10:06:51.580Z,98841.50
2023-05-25T10:09:19.768Z,98846.66
2023-05-25T10:11:47.185Z,98848.69
2023-05-25T10:14:16.800Z,98860.81
2023-05-25T10:16:48.105Z,98853.25
2023-05-25T10:19:37.183Z,98839.59
2023-05-25T10:22:08.043Z,98849.34
2023-05-25T10:25:04.726Z,98840.63
2023-05-25T10:28:00.217Z,98837.31
2023-05-25T10:30:30.153Z,98871.09
2023-05-25T10:32:57.380Z,98840.84
2023-05-25T10:35:24.490Z,98835.69
2023-05-25T10:37:52.751Z,98856.59
2023-05-25T10:40:22.048Z,98831.78
2023-05-25T10:42:51.209Z,98843.63
2023-05-25T10:45:18.627Z,98837.53
2023-05-25T10:47:46.447Z,98847.19
2023-05-25T10:50:27.017Z,98835.38
2023-05-25T10:53:07.262Z,98853.19
2023-05-25T10:55:49.217Z,98840.47
2023-05-25T10:58:17.359Z,98860.16
2023-05-25T11:00:56.980Z,98845.44
2023-05-25T11:04:02.632Z,98871.75
2023-05-25T11:06:40.202Z,98851.22
2023-05-25T11:09:07.239Z,98850.81
2023-05-25T11:11:43.164Z,98839.31
2023-05-25T11:14:31.974Z,98862.63
2023-05-25T11:17:20.705Z,98858.72
2023-05-25T11:19:51.384Z,98840.31
2023-05-25T11:22:21.655Z,98846.97
2023-05-25T11:24:53.756Z,98838.44
2023-05-25T11:27:23.938Z,98842.56
2023-05-25T11:29:51.999Z,98839.78
2023-05-25T11:32:18.713Z,98825.16
2023-05-25T11:34:47.045Z,98817.69
2023-05-25T11:37:17.122Z,98827.00
2023-05-25T11:39:48.242Z,98832.63
2023-05-25T11:42:15.308Z,98812.66
2023-05-25T11:44:42.208Z,98833.91
2023-05-25T11:47:18.838Z,98832.00
2023-05-25T11:49:47.076Z,98817.25
2023-05-25T11:52:15.128Z,98822.06
2023-05-25T11:54:42.184Z,98820.59
2023-05-25T11:57:18.700Z,98820.59
2023-05-25T11:59:56.057Z,98817.50
2023-05-25T12:02:23.858Z,98813.25
2023-05-25T12:04:57.463Z,98826.47
2023-05-25T12:07:26.323Z,98821.19
2023-05-25T12:10:04.760Z,98814.63
2023-05-25T12:12:40.651Z,98819.69
2023-05-25T12:15:12.014Z,98825.78
2023-05-25T12:17:41.734Z,98812.59
2023-05-25T12:20:10.945Z,98748.50
2023-05-25T12:22:39.341Z,98823.13
2023-05-25T12:25:07.590Z,98803.91
2023-05-25T12:27:34.509Z,98820.25
2023-05-25T12:30:00.977Z,98818.06
2023-05-25T12:32:27.514Z,98807.78
2023-05-25T12:35:02.828Z,98806.00
2023-05-25T12:37:29.728Z,98795.09
2023-05-25T12:39:59.460Z,98805.25
2023-05-25T12:42:27.509Z,98810.00
2023-05-25T12:44:57.923Z,98796.81
2023-05-25T12:47:27.864Z,98764.69
2023-05-25T12:50:13.444Z,98809.69
2023-05-25T12:52:44.141Z,98786.59
2023-05-25T12:55:19.954Z,98800.22
2023-05-25T12:57:52.786Z,98786.47
2023-05-25T13:00:27.843Z,98792.19
2023-05-25T13:02:54.800Z,98794.31
2023-05-25T13:05:27.719Z,98786.31
2023-05-25T13:07:56.243Z,98784.09
2023-05-25T13:10:23.519Z,98754.72
2023-05-25T13:12:51.691Z,98785.69
2023-05-25T13:15:22.852Z,98788.06
2023-05-25T13:17:51.060Z,98795.34
2023-05-25T13:20:19.984Z,98785.59
2023-05-25T13:22:48.895Z,98795.28
2023-05-25T13:25:15.875Z,98791.13
2023-05-25T13:27:47.755Z,98780.28
2023-05-25T13:30:15.288Z,98808.97
2023-05-25T13:32:45.497Z,98811.00
2023-05-25T13:35:18.538Z,98795.31
2023-05-25T13:37:47.844Z,98790.22
2023-05-25T13:40:14.985Z,98785.47
2023-05-25T13:42:41.547Z,98794.06
2023-05-25T13:45:08.657Z,98788.41
2023-05-25T13:47:35.218Z,98791.16
2023-05-25T13:50:01.795Z,98800.03
2023-05-25T13:52:28.619Z,98797.81
2023-05-25T13:54:55.200Z,98791.34
2023-05-25T13:57:22.490Z,98787.53
2023-05-25T13:59:49.009Z,98769.41
2023-05-25T14:02:15.637Z,98781.75
2023-05-25T14:04:42.131Z,98781.75
2023-05-25T14:07:08.911Z,98779.19
2023-05-25T14:09:35.579Z,98776.13
2023-05-25T14:12:03.028Z,98773.69
2023-05-25T14:14:32.217Z,98779.66
2023-05-25T14:17:00.528Z,98775.25
2023-05-25T14:19:27.470Z,98778.66
2023-05-25T14:22:11.135Z,98782.00
2023-05-25T14:24:38.966Z,98780.22
2023-05-25T14:27:07.053Z,98763.16
2023-05-25T14:29:33.780Z,98768.50
2023-05-25T14:32:00.337Z,98770.41
2023-05-25T14:34:26.893Z,98777.03
2023-05-25T14:36:53.445Z,98768.13
2023-05-25T14:39:19.889Z,98776.97
2023-05-25T14:41:46.426Z,98762.50
2023-05-25T14:44:12.999Z,98760.66
2023-05-25T14:46:39.558Z,98755.97
2023-05-25T14:49:06.069Z,98766.97
2023-05-25T14:51:32.534Z,98759.78
2023-05-25T14:54:01.245Z,98715.75
2023-05-25T14:56:28.385Z,98760.84
2023-05-25T14:58:54.867Z,98757.94
2023-05-25T15:01:23.678Z,98763.28
2023-05-25T15:03:51.700Z,98773.69
2023-05-25T15:06:18.382Z,98765.13
2023-05-25T15:08:44.819Z,98768.59
2023-05-25T15:11:11.311Z,98771.19
2023-05-25T15:13:38.045Z,98767.34
2023-05-25T15:16:04.860Z,98759.63
2023-05-25T15:18:31.295Z,98758.16
2023-05-25T15:20:58.148Z,98730.50
2023-05-25T15:23:24.613Z,98765.34
2023-05-25T15:25:51.136Z,98760.59
2023-05-25T15:28:17.653Z,98753.44
2023-05-25T15:30:44.248Z,98755.66
2023-05-25T15:33:13.182Z,98756.50
2023-05-25T15:35:39.833Z,98762.06
2023-05-25T15:38:06.358Z,98763.69
2023-05-25T15:40:32.982Z,98755.13
2023-05-25T15:42:59.478Z,98759.91
2023-05-25T15:45:26.345Z,98756.66
2023-05-25T15:47:52.955Z,98757.16
2023-05-25T15:50:19.615Z,98758.31
2023-05-25T15:52:46.734Z,98746.47
2023-05-25T15:55:13.232Z,98763.50
2023-05-25T15:57:39.790Z,98755.84
2023-05-25T16:00:06.790Z,98751.09
2023-05-25T16:02:33.258Z,98737.81
2023-05-25T16:04:59.753Z,98748.56
2023-05-25T16:07:26.469Z,98734.13
2023-05-25T16:09:53.112Z,98755.31
2023-05-25T16:12:19.582Z,98755.47
2023-05-25T16:14:46.109Z,98764.28
2023-05-25T16:17:12.562Z,98752.66
2023-05-25T16:19:39.024Z,98747.34
2023-05-25T16:22:05.684Z,98751.00
2023-05-25T16:24:33.207Z,98753.63
2023-05-25T16:26:59.736Z,98760.72
2023-05-25T16:29:26.232Z,98762.06
2023-05-25T16:31:54.627Z,98759.31
2023-05-25T16:34:21.970Z,98755.66
2023-05-25T16:36:48.461Z,98758.59
2023-05-25T16:39:15.007Z,98758.31
2023-05-25T16:41:41.450Z,98761.47
2023-05-25T16:44:08.103Z,98749.63
2023-05-25T16:46:34.585Z,98744.72
2023-05-25T16:49:01.289Z,98748.56
2023-05-25T16:51:27.773Z,98747.53
2023-05-25T16:53:54.388Z,98730.19
2023-05-25T16:56:21.421Z,98743.13
2023-05-25T16:58:47.939Z,98740.44
2023-05-25T17:01:14.387Z,98745.53
2023-05-25T17:03:41.247Z,98742.88
2023-05-25T17:06:08.190Z,98732.91
2023-05-25T17:08:36.253Z,98736.59
2023-05-25T17:11:02.744Z,98646.59
2023-05-25T17:13:29.306Z,98743.38
2023-05-25T17:15:55.884Z,98665.38
2023-05-25T17:18:22.435Z,98742.13
2023-05-25T17:20:49.006Z,98738.72
2023-05-25T17:23:18.446Z,98741.13
2023-05-25T17:25:45.294Z,98749.25
2023-05-25T17:28:11.930Z,98741.41
2023-05-25T17:30:38.398Z,98749.13
2023-05-25T17:33:04.964Z,98747.13
2023-05-25T17:35:31.520Z,98745.03
2023-05-25T17:37:57.971Z,98739.38
2023-05-25T17:40:24.453Z,98743.06
2023-05-25T17:42:50.898Z,98742.56
2023-05-25T17:45:17.503Z,98739.63
2023-05-25T17:47:43.992Z,98745.25
2023-05-25T17:50:10.718Z,98743.66
2023-05-25T17:52:37.165Z,98754.56
2023-05-25T17:55:05.009Z,98739.66
2023-05-25T17:57:31.587Z,98740.88
2023-05-25T17:59:58.108Z,98747.81
2023-05-25T18:02:24.842Z,98754.09
2023-05-25T18:04:51.521Z,98745.78
2023-05-25T18:07:19.599Z,98745.47
2023-05-25T18:09:46.102Z,98752.28
2023-05-25T18:12:12.579Z,98748.84
2023-05-25T18:14:39.093Z,98747.41
2023-05-25T18:17:05.596Z,98753.25
2023-05-25T18:19:32.112Z,98743.78
2023-05-25T18:21:58.575Z,98750.38
2023-05-25T18:24:25.061Z,98752.25
2023-05-25T18:26:51.683Z,98740.66
2023-05-25T18:29:18.176Z,98746.44
2023-05-25T18:31:47.199Z,98667.63
2023-05-25T18:34:14.077Z,98752.78
2023-05-25T18:36:40.577Z,98753.59
2023-05-25T18:39:07.065Z,98758.13
2023-05-25T18:41:33.713Z,98759.31
2023-05-25T18:44:00.212Z,98760.19
2023-05-25T18:46:28.167Z,98748.94
2023-05-25T18:48:55.788Z,98756.66
2023-05-25T18:51:25.586Z,98765.88
2023-05-25T18:53:52.311Z,98768.25
2023-05-25T18:56:19.400Z,98740.78
2023-05-25T18:58:46.042Z,98764.97
2023-05-25T19:01:12.589Z,98764.44
2023-05-25T19:03:39.228Z,98775.50
2023-05-25T19:06:05.876Z,98775.56
2023-05-25T19:08:32.383Z,98775.09
2023-05-25T19:10:58.831Z,98779.19
2023-05-25T19:13:25.349Z,98779.25
2023-05-25T19:15:51.901Z,98779.41
2023-05-25T19:18:18.584Z,98783.28
2023-05-25T19:20:45.135Z,98755.22
2023-05-25T19:23:11.717Z,98784.09
2023-05-25T19:25:38.262Z,98788.66
2023-05-25T19:28:04.759Z,98787.28
2023-05-25T19:30:31.251Z,98791.69
2023-05-25T19:32:57.824Z,98799.50
2023-05-25T19:35:24.376Z,98801.44
2023-05-25T19:37:50.840Z,98797.72
2023-05-25T19:40:17.448Z,98802.06
2023-05-25T19:42:44.344Z,98806.03
2023-05-25T19:45:11.187Z,98808.16
2023-05-25T19:47:37.735Z,98809.69
2023-05-25T19:50:04.647Z,98766.81
2023-05-25T19:52:31.346Z,98818.81
2023-05-25T19:54:57.795Z,98808.28
2023-05-25T19:57:26.121Z,98817.69
2023-05-25T19:59:52.770Z,98815.00
2023-05-25T20:02:20.448Z,98818.94
2023-05-25T20:04:47.341Z,98823.50
2023-05-25T20:07:13.995Z,98827.69
2023-05-25T20:09:41.358Z,98831.44
2023-05-25T20:12:08.025Z,98838.34
2023-05-25T20:14:34.553Z,98826.41
2023-05-25T20:17:01.167Z,98842.41
2023-05-25T20:19:27.623Z,98839.31
2023-05-25T20:21:54.280Z,98831.97
2023-05-25T20:24:21.997Z,98843.31
2023-05-25T20:26:48.632Z,98836.28
2023-05-25T20:29:15.249Z,98844.84
2023-05-25T20:31:41.760Z,98842.91
2023-05-25T20:34:08.309Z,98841.13
2023-05-25T20:36:34.749Z,98843.28
2023-05-25T20:39:02.954Z,98836.53
2023-05-25T20:41:29.541Z,98850.19
2023-05-25T20:43:56.126Z,98849.88
2023-05-25T20:46:22.753Z,98856.03
2023-05-25T20:48:49.297Z,98853.34
2023-05-25T20:51:15.839Z,98867.94
2023-05-25T20:53:42.310Z,98868.50
2023-05-25T20:56:08.765Z,98873.50
2023-05-25T20:58:37.396Z,98833.19
2023-05-25T21:01:03.982Z,98853.44
2023-05-25T21:03:30.672Z,98883.44
2023-05-25T21:05:57.384Z,98883.56
2023-05-25T21:08:24.106Z,98883.25
2023-05-25T21:10:50.897Z,98885.38
2023-05-25T21:13:17.363Z,98895.69
2023-05-25T21:15:44.070Z,98890.44
2023-05-25T21:18:10.816Z,98894.88
2023-05-25T21:20:38.668Z,98896.38
2023-05-25T21:23:05.322Z,98898.03
2023-05-25T21:25:32.088Z,98898.84
2023-05-25T21:27:58.556Z,98895.69
2023-05-25T21:30:25.131Z,98896.75
2023-05-25T21:32:51.716Z,98892.28
2023-05-25T21:35:18.439Z,98911.09
2023-05-25T21:37:45.665Z,98897.91
2023-05-25T21:40:12.553Z,98911.69
2023-05-25T21:42:39.154Z,98909.69
2023-05-25T21:45:06.050Z,98912.38
2023-05-25T21:47:32.532Z,98916.78
2023-05-25T21:49:59.003Z,98919.59
2023-05-25T21:52:25.571Z,98918.56
2023-05-25T21:54:52.151Z,98921.38
2023-05-25T21:57:18.720Z,98927.19
2023-05-25T21:59:45.228Z,98924.19
2023-05-25T22:02:11.817Z,98920.78
2023-05-25T22:04:38.319Z,98913.06
2023-05-25T22:07:04.892Z,98916.19
2023-05-25T22:09:31.729Z,98908.47
2023-05-25T22:11:58.344Z,98888.53
2023-05-25T22:14:24.827Z,98893.63
2023-05-25T22:16:51.446Z,98928.13
2023-05-25T22:19:18.001Z,98934.31
2023-05-25T22:21:44.680Z,98940.00
2023-05-25T22:24:11.141Z,98932.63
2023-05-25T22:26:37.696Z,98891.22
2023-05-25T22:29:04.238Z,98931.88
2023-05-25T22:31:30.949Z,98942.19
2023-05-25T22:33:57.485Z,98953.59
2023-05-25T22:36:23.935Z,98936.94
2023-05-25T22:38:50.465Z,98948.59
2023-05-25T22:41:16.953Z,98941.59
2023-05-25T22:43:43.551Z,98853.50
2023-05-25T22:46:10.156Z,98928.22
2023-05-25T22:48:36.644Z,98944.56
2023-05-25T22:51:03.284Z,98941.09
2023-05-25T22:53:29.739Z,98949.94
2023-05-25T22:55:56.312Z,98949.06
2023-05-25T22:58:22.761Z,98951.72
2023-05-25T23:00:49.218Z,98946.06
2023-05-25T23:03:15.807Z,98948.88
2023-05-25T23:05:42.508Z,98950.50
2023-05-25T23:08:09.051Z,98942.56
2023-05-25T23:10:35.896Z,98950.31
2023-05-25T23:13:02.440Z,98954.41
2023-05-25T23:15:30.653Z,98955.91
2023-05-25T23:17:57.149Z,98961.44
2023-05-25T23:20:23.823Z,98959.47
2023-05-25T23:22:50.430Z,98912.13
2023-05-25T23:25:17.042Z,98954.91
2023-05-25T23:27:43.495Z,98927.78
2023-05-25T23:30:10.515Z,98953.78
2023-05-25T23:32:37.046Z,98954.03
2023-05-25T23:35:04.062Z,98952.16
2023-05-25T23:37:30.500Z,98957.19
2023-05-25T23:39:57.114Z,98955.13
2023-05-25T23:42:23.904Z,98960.44
2023-05-25T23:44:50.391Z,98953.72
2023-05-25T23:47:16.843Z,98957.63
2023-05-25T23:49:43.428Z,98952.28
2023-05-25T23:52:09.978Z,98960.97
2023-05-25T23:54:36.471Z,98955.19
2023-05-25T23:57:03.086Z,98961.81
2023-05-25T23:59:29.566Z,98959.28
